Altoona, Florida
Current Conditions -  °F | °C
As of 5:53 AM on Friday 31 Oct 2014 (Local Time) from KLEE Reporting Station
Broken Clouds Broken Clouds  
Wind Chill: 65°   Ceiling: 7500
Heat Index: 65°   Visibility: 10mi
Dew Point: 56°   Wind: 6mph
Humidity: 73%   Direction: 360°N
Pressure: 29.86"   Gusts: NA
Location:  28.97°N, 81.65°W
Report Text: KLEE 310953Z AUTO 36005KT 10SM FEW050 BKN075 18/13 A2986 RMK AO2 SLP110 T01830133
Loading
Personal Weather Stations






























Interactive Weather Map New forecast layout! Learn more

10-Day Weather Forecast

Advertisements
Track Severe Weather on mobile